Time;durP1;ratioP1;P1;durP2;ratioP2;P2;SDS_P1;SDS_P2;PMS_P1;PMS_P2;Temp;Humidity;BMP_temperature;BMP_pressure;BME280_temperature;BME280_humidity;BME280_pressure;Samples;Min_cycle;Max_cycle;Signal;HPM_P1;HPM_P2
2021/03/18 00:01:57;;;;;;;4.65;1.40;;;-0.40;99.90;;;;;;5050315;28;20044;-70
2021/03/18 00:04:43;;;;;;;8.15;1.98;;;-0.40;99.90;;;;;;5069319;28;20089;-69
2021/03/18 00:07:28;;;;;;;5.88;1.95;;;-0.50;99.90;;;;;;5070160;28;20078;-69
2021/03/18 00:10:13;;;;;;;7.65;2.75;;;-0.50;99.90;;;;;;5069283;28;20513;-69
2021/03/18 00:12:58;;;;;;;5.78;2.20;;;-0.50;99.90;;;;;;5069163;28;20094;-70
2021/03/18 00:15:44;;;;;;;6.50;1.77;;;-0.50;99.90;;;;;;5066948;28;20062;-70
2021/03/18 00:18:31;;;;;;;5.45;1.80;;;-0.50;99.90;;;;;;5051587;28;20124;-69
2021/03/18 00:21:17;;;;;;;5.47;1.83;;;-0.60;99.90;;;;;;5068365;28;20125;-70
2021/03/18 00:24:01;;;;;;;11.00;2.10;;;-0.70;99.90;;;;;;5069916;28;20025;-69
2021/03/18 00:26:45;;;;;;;7.28;1.50;;;-0.70;99.90;;;;;;5065717;28;20195;-69
2021/03/18 00:29:30;;;;;;;5.95;1.58;;;-0.70;99.90;;;;;;5082369;28;20051;-69
2021/03/18 00:32:14;;;;;;;3.55;1.35;;;-0.60;99.90;;;;;;5060697;28;20392;-69
2021/03/18 00:34:58;;;;;;;4.63;1.10;;;-0.60;99.90;;;;;;5037147;28;20125;-70
2021/03/18 00:37:44;;;;;;;5.22;1.42;;;-0.70;99.90;;;;;;5068867;28;20631;-69
2021/03/18 00:40:34;;;;;;;5.90;1.65;;;-0.80;99.90;;;;;;5050485;28;20039;-69
2021/03/18 00:43:20;;;;;;;12.20;2.10;;;-0.90;99.90;;;;;;5050879;28;20051;-70
2021/03/18 00:46:05;;;;;;;5.43;1.80;;;-1.00;99.90;;;;;;5068787;28;20066;-69
2021/03/18 00:48:50;;;;;;;6.07;1.50;;;-0.90;99.90;;;;;;5065195;28;20074;-69
2021/03/18 00:51:34;;;;;;;6.07;1.50;;;-1.00;99.90;;;;;;5062680;28;20032;-69
2021/03/18 00:54:18;;;;;;;8.57;1.65;;;-1.00;99.90;;;;;;5050592;28;20643;-69
2021/03/18 00:57:03;;;;;;;6.47;1.50;;;-1.00;99.90;;;;;;5066140;28;20067;-70
2021/03/18 00:59:47;;;;;;;5.50;1.40;;;-1.00;99.90;;;;;;5069383;28;20291;-69
2021/03/18 01:02:32;;;;;;;8.68;1.75;;;-1.00;99.90;;;;;;5075278;28;20062;-69
2021/03/18 01:05:31;;;;;;;3.38;1.27;;;-1.00;99.90;;;;;;5060402;28;20027;-69
2021/03/18 01:08:18;;;;;;;5.07;1.40;;;-1.10;99.90;;;;;;5063084;28;20393;-69
2021/03/18 01:11:21;;;;;;;3.80;1.40;;;-1.10;99.90;;;;;;5067673;28;20048;-70
2021/03/18 01:14:12;;;;;;;7.13;1.40;;;-1.10;99.90;;;;;;5068285;28;20052;-69
2021/03/18 01:16:58;;;;;;;7.55;2.10;;;-1.20;99.90;;;;;;5049942;28;20078;-69
2021/03/18 01:19:42;;;;;;;5.93;1.73;;;-1.20;99.90;;;;;;5068437;28;20146;-69
2021/03/18 01:22:26;;;;;;;7.82;1.50;;;-1.20;99.90;;;;;;5067746;28;20198;-69
2021/03/18 01:25:11;;;;;;;6.13;1.75;;;-1.30;99.90;;;;;;5053200;28;20035;-69
2021/03/18 01:27:56;;;;;;;6.30;1.65;;;-1.20;99.90;;;;;;5063124;28;20040;-69
2021/03/18 01:30:40;;;;;;;6.07;1.45;;;-1.20;99.90;;;;;;5081150;28;20043;-69
2021/03/18 01:33:25;;;;;;;5.78;1.95;;;-1.30;99.90;;;;;;5067350;28;20040;-69
2021/03/18 01:36:13;;;;;;;6.28;1.50;;;-1.40;99.90;;;;;;5067274;28;20082;-69
2021/03/18 01:38:58;;;;;;;9.45;2.33;;;-1.40;99.90;;;;;;5067861;28;20032;-69
2021/03/18 01:41:42;;;;;;;9.63;2.55;;;-1.50;99.90;;;;;;5049838;28;20036;-69
2021/03/18 01:44:26;;;;;;;5.93;1.58;;;-1.50;99.90;;;;;;5049303;28;20398;-70
2021/03/18 01:47:11;;;;;;;7.22;1.85;;;-1.50;99.90;;;;;;5050940;28;20024;-69
2021/03/18 01:49:55;;;;;;;4.97;1.63;;;-1.50;99.90;;;;;;5049350;28;20043;-69
2021/03/18 01:52:40;;;;;;;4.07;1.73;;;-1.50;99.90;;;;;;5049672;28;20040;-69
2021/03/18 01:55:39;;;;;;;6.45;1.85;;;-1.50;99.90;;;;;;5068937;28;20121;-69
2021/03/18 01:58:25;;;;;;;6.25;1.98;;;-1.50;99.90;;;;;;5035942;28;20610;-70
2021/03/18 02:01:13;;;;;;;9.57;1.85;;;-1.50;99.90;;;;;;5067989;28;20135;-70
2021/03/18 02:03:57;;;;;;;6.93;2.08;;;-1.50;99.90;;;;;;5050312;28;20067;-69
2021/03/18 02:06:42;;;;;;;4.25;1.52;;;-1.50;99.90;;;;;;5068137;28;20040;-69
2021/03/18 02:09:27;;;;;;;5.93;2.10;;;-1.50;99.90;;;;;;5067474;28;20109;-69
2021/03/18 02:12:11;;;;;;;6.75;2.00;;;-1.60;99.90;;;;;;5067095;28;20429;-70
2021/03/18 02:14:56;;;;;;;5.43;1.63;;;-1.60;99.90;;;;;;5067346;28;20090;-69
2021/03/18 02:18:05;;;;;;;7.82;1.75;;;-1.60;99.90;;;;;;5067362;28;20055;-70
2021/03/18 02:21:03;;;;;;;3.80;1.30;;;-1.60;99.90;;;;;;5063588;28;20031;-69
2021/03/18 02:23:51;;;;;;;6.18;1.10;;;-1.60;99.90;;;;;;5064339;28;20029;-69
2021/03/18 02:26:50;;;;;;;3.75;1.40;;;-1.60;99.90;;;;;;5050696;28;20394;-69
2021/03/18 02:29:54;;;;;;;7.80;1.77;;;-1.60;99.90;;;;;;5080788;28;20034;-70
2021/03/18 02:32:59;;;;;;;4.40;1.55;;;-1.60;99.90;;;;;;5066985;28;20540;-69
2021/03/18 02:35:57;;;;;;;3.67;1.13;;;-1.60;99.90;;;;;;5062854;28;20039;-70
2021/03/18 02:38:54;;;;;;;3.42;1.10;;;-1.70;99.90;;;;;;5063336;28;20035;-69
2021/03/18 02:41:45;;;;;;;4.95;1.67;;;-1.70;99.90;;;;;;5078430;28;20052;-69
2021/03/18 02:44:32;;;;;;;4.95;1.52;;;-1.80;99.90;;;;;;5061860;28;20058;-69
2021/03/18 02:47:21;;;;;;;5.18;1.60;;;-1.80;99.90;;;;;;5071074;28;20054;-69
2021/03/18 02:50:08;;;;;;;4.60;1.30;;;-1.80;99.90;;;;;;5053019;28;20113;-69
2021/03/18 02:52:54;;;;;;;4.40;1.45;;;-1.90;99.90;;;;;;5068570;28;20025;-69
2021/03/18 02:55:43;;;;;;;4.32;1.50;;;-1.80;99.90;;;;;;5070620;28;20027;-69
2021/03/18 02:58:31;;;;;;;4.60;2.45;;;-1.80;99.90;;;;;;5053025;28;20036;-69
2021/03/18 03:01:16;;;;;;;8.15;2.10;;;-1.90;99.90;;;;;;5060932;28;20106;-70
2021/03/18 03:04:03;;;;;;;5.30;2.03;;;-1.90;99.90;;;;;;5060809;28;20083;-69
2021/03/18 03:06:50;;;;;;;5.50;1.90;;;-1.90;99.90;;;;;;5070887;28;20077;-69
2021/03/18 03:09:36;;;;;;;7.75;1.95;;;-2.00;99.90;;;;;;5070709;28;20119;-69
2021/03/18 03:12:24;;;;;;;6.47;1.67;;;-2.00;99.90;;;;;;5067098;28;20039;-69
2021/03/18 03:15:10;;;;;;;5.15;2.03;;;-2.00;99.90;;;;;;5070807;28;20122;-69
2021/03/18 03:17:58;;;;;;;9.73;2.65;;;-2.00;99.90;;;;;;5071247;28;20685;-69
2021/03/18 03:20:43;;;;;;;3.75;2.05;;;-2.00;99.90;;;;;;5051009;28;20562;-69
2021/03/18 03:23:29;;;;;;;5.75;2.83;;;-2.00;99.90;;;;;;5069814;28;20101;-69
2021/03/18 03:26:17;;;;;;;7.45;2.50;;;-2.00;99.90;;;;;;5053007;28;20036;-69
2021/03/18 03:29:02;;;;;;;7.88;2.88;;;-2.10;99.90;;;;;;5052593;28;20505;-69
2021/03/18 03:31:46;;;;;;;7.10;2.67;;;-2.10;99.90;;;;;;5055298;28;20047;-69
2021/03/18 03:34:32;;;;;;;7.60;2.63;;;-2.00;99.90;;;;;;5070963;28;20059;-69
2021/03/18 03:37:16;;;;;;;4.93;2.58;;;-2.00;99.90;;;;;;5071171;28;20063;-69
2021/03/18 03:40:04;;;;;;;7.03;2.17;;;-2.10;99.90;;;;;;5068737;28;20036;-69
2021/03/18 03:42:49;;;;;;;9.48;2.83;;;-2.10;99.90;;;;;;5069684;28;20058;-69
2021/03/18 03:45:33;;;;;;;7.75;2.50;;;-2.20;99.90;;;;;;5054259;28;20031;-69
2021/03/18 03:48:19;;;;;;;11.52;2.90;;;-2.20;99.90;;;;;;5069278;28;20515;-69
2021/03/18 03:51:04;;;;;;;10.82;3.13;;;-2.20;99.90;;;;;;5068795;28;20036;-69
2021/03/18 03:53:55;;;;;;;10.10;2.55;;;-2.20;99.90;;;;;;5064836;28;20043;-69
2021/03/18 03:56:55;;;;;;;5.68;2.38;;;-2.20;99.90;;;;;;5054102;28;20585;-69
2021/03/18 03:59:40;;;;;;;8.05;2.35;;;-2.20;99.90;;;;;;5069163;28;20075;-69
2021/03/18 04:02:29;;;;;;;8.38;2.60;;;-2.20;99.90;;;;;;5068545;28;20040;-69
2021/03/18 04:05:14;;;;;;;6.88;2.40;;;-2.30;99.90;;;;;;5068451;28;20024;-69
2021/03/18 04:08:01;;;;;;;6.57;2.42;;;-2.30;99.90;;;;;;5068889;28;20139;-69
2021/03/18 04:10:45;;;;;;;8.45;2.53;;;-2.40;99.90;;;;;;5068257;28;20048;-69
2021/03/18 04:13:32;;;;;;;6.65;2.95;;;-2.40;99.90;;;;;;5061574;28;20036;-69
2021/03/18 04:16:16;;;;;;;7.38;2.28;;;-2.40;99.90;;;;;;5053836;28;20078;-69
2021/03/18 04:19:02;;;;;;;5.93;2.90;;;-2.40;99.90;;;;;;5068820;28;20035;-69
2021/03/18 04:21:51;;;;;;;7.80;2.80;;;-2.50;99.90;;;;;;5033792;28;20101;-69
2021/03/18 04:24:36;;;;;;;8.63;2.70;;;-2.50;99.90;;;;;;5067823;28;20032;-69
2021/03/18 04:27:20;;;;;;;7.63;3.53;;;-2.50;99.90;;;;;;5062611;28;20089;-69
2021/03/18 04:30:09;;;;;;;7.57;3.17;;;-2.50;99.90;;;;;;5045897;28;20070;-69
2021/03/18 04:32:55;;;;;;;8.63;3.38;;;-2.50;99.90;;;;;;5050615;28;20040;-69
2021/03/18 04:35:42;;;;;;;6.90;2.58;;;-2.50;99.90;;;;;;5068478;28;20358;-69
2021/03/18 04:38:28;;;;;;;6.80;2.80;;;-2.40;99.90;;;;;;5049839;28;20442;-69
2021/03/18 04:41:12;;;;;;;7.65;2.58;;;-2.50;99.90;;;;;;5050460;28;20043;-69
2021/03/18 04:43:57;;;;;;;7.90;2.30;;;-2.50;99.90;;;;;;5053195;28;20040;-69
2021/03/18 04:46:46;;;;;;;9.35;2.92;;;-2.50;99.90;;;;;;5045803;28;20543;-69
2021/03/18 04:49:32;;;;;;;10.10;3.80;;;-2.50;99.90;;;;;;5065141;28;20059;-69
2021/03/18 04:52:18;;;;;;;10.63;3.50;;;-2.60;99.90;;;;;;5071220;28;20047;-68
2021/03/18 04:55:03;;;;;;;11.32;4.03;;;-2.60;99.90;;;;;;5065190;28;20044;-69
2021/03/18 04:58:09;;;;;;;8.40;3.40;;;-2.60;99.90;;;;;;5064381;28;20322;-69
2021/03/18 05:00:55;;;;;;;8.90;3.95;;;-2.60;99.90;;;;;;5049745;28;20086;-69
2021/03/18 05:03:41;;;;;;;10.13;3.45;;;-2.60;99.90;;;;;;5036028;28;20116;-69
2021/03/18 05:06:27;;;;;;;7.63;3.83;;;-2.60;99.90;;;;;;5068511;28;20043;-69
2021/03/18 05:09:12;;;;;;;8.68;3.78;;;-2.60;99.90;;;;;;5066237;28;20052;-69
2021/03/18 05:11:57;;;;;;;12.63;3.88;;;-2.60;99.90;;;;;;5068690;28;20039;-70
2021/03/18 05:14:41;;;;;;;9.15;3.78;;;-2.60;99.90;;;;;;5053185;28;20089;-69
2021/03/18 05:17:26;;;;;;;10.10;4.28;;;-2.60;99.90;;;;;;5068033;28;20041;-69
2021/03/18 05:20:12;;;;;;;5.95;3.50;;;-2.60;99.90;;;;;;5068276;28;20370;-69
2021/03/18 05:22:57;;;;;;;8.00;3.55;;;-2.60;99.90;;;;;;5038003;28;20150;-69
2021/03/18 05:25:46;;;;;;;10.18;3.72;;;-2.60;99.90;;;;;;5060525;28;20485;-69
2021/03/18 05:28:31;;;;;;;11.57;4.25;;;-2.60;99.90;;;;;;5054289;28;20039;-69
2021/03/18 05:31:15;;;;;;;10.52;4.00;;;-2.60;99.90;;;;;;5033958;28;20044;-69
2021/03/18 05:34:00;;;;;;;8.07;4.28;;;-2.60;99.90;;;;;;5069532;28;20036;-70
2021/03/18 05:36:44;;;;;;;11.27;4.65;;;-2.60;99.90;;;;;;5050232;28;20131;-69
2021/03/18 05:39:28;;;;;;;11.55;4.50;;;-2.60;99.90;;;;;;5068336;28;20020;-69
2021/03/18 05:42:13;;;;;;;9.40;4.07;;;-2.60;99.90;;;;;;5049139;28;20448;-69
2021/03/18 05:45:08;;;;;;;9.43;4.05;;;-2.60;99.90;;;;;;5052684;28;20028;-69
2021/03/18 05:47:53;;;;;;;9.88;4.15;;;-2.60;99.90;;;;;;5050194;28;20040;-69
2021/03/18 05:50:40;;;;;;;9.60;4.13;;;-2.60;99.90;;;;;;5068311;28;20108;-69
2021/03/18 05:53:27;;;;;;;11.05;4.38;;;-2.60;99.90;;;;;;5068027;28;20036;-69
2021/03/18 05:56:19;;;;;;;7.88;3.80;;;-2.50;99.90;;;;;;5068658;28;20071;-69
2021/03/18 05:59:05;;;;;;;12.32;3.95;;;-2.50;99.90;;;;;;5069810;28;20428;-69
2021/03/18 06:01:50;;;;;;;11.57;4.97;;;-2.50;99.90;;;;;;5067106;28;20047;-69
2021/03/18 06:04:35;;;;;;;8.98;3.72;;;-2.40;99.90;;;;;;5068537;28;20025;-69
2021/03/18 06:07:20;;;;;;;18.58;4.30;;;-2.40;99.90;;;;;;5068508;28;20536;-69
2021/03/18 06:10:09;;;;;;;20.85;8.70;;;-2.40;99.90;;;;;;5053509;28;20043;-69
2021/03/18 06:12:56;;;;;;;17.83;8.50;;;-2.30;99.90;;;;;;5087532;28;20098;-69
2021/03/18 06:15:40;;;;;;;12.05;6.60;;;-2.30;99.90;;;;;;5084764;28;20524;-69
2021/03/18 06:18:24;;;;;;;14.55;8.15;;;-2.30;99.90;;;;;;5072824;28;20413;-69
2021/03/18 06:21:09;;;;;;;19.58;8.88;;;-2.30;99.90;;;;;;5054069;28;20161;-69
2021/03/18 06:24:01;;;;;;;19.42;7.78;;;-2.30;99.90;;;;;;5053413;28;20055;-69
2021/03/18 06:26:52;;;;;;;17.80;6.88;;;-2.30;99.90;;;;;;5052853;28;20050;-69
2021/03/18 06:29:40;;;;;;;16.23;8.70;;;-2.30;99.90;;;;;;5050984;28;20025;-69
2021/03/18 06:32:25;;;;;;;17.65;8.38;;;-2.20;99.90;;;;;;5071613;28;20123;-69
2021/03/18 06:35:11;;;;;;;15.23;8.00;;;-2.10;99.90;;;;;;5040439;28;20134;-69
2021/03/18 06:37:57;;;;;;;16.73;8.07;;;-2.00;99.90;;;;;;5041740;28;20028;-69
2021/03/18 06:40:44;;;;;;;18.42;8.50;;;-1.90;99.90;;;;;;5080905;28;20039;-69
2021/03/18 06:43:41;;;;;;;17.13;8.75;;;-1.80;99.90;;;;;;5087586;28;20055;-70
2021/03/18 06:46:26;;;;;;;19.70;9.13;;;-1.70;99.90;;;;;;5087527;28;20068;-69
2021/03/18 06:49:12;;;;;;;17.88;9.07;;;-1.60;99.90;;;;;;5042195;28;20160;-69
2021/03/18 06:52:11;;;;;;;14.23;7.93;;;-1.50;99.90;;;;;;5086743;28;20436;-69
2021/03/18 06:54:56;;;;;;;14.70;6.88;;;-1.50;99.90;;;;;;5071429;28;20040;-69
2021/03/18 06:57:40;;;;;;;11.18;5.53;;;-1.40;99.90;;;;;;5069252;28;20040;-69
2021/03/18 07:00:36;;;;;;;14.00;5.78;;;-1.30;99.90;;;;;;5076144;28;20543;-69
2021/03/18 07:03:31;;;;;;;13.07;5.57;;;-1.20;99.90;;;;;;5049473;28;20098;-69
2021/03/18 07:06:30;;;;;;;10.88;3.90;;;-1.10;99.90;;;;;;5065245;28;20047;-69
2021/03/18 07:09:14;;;;;;;8.32;4.00;;;-1.10;99.90;;;;;;5064519;28;20100;-69
2021/03/18 07:12:03;;;;;;;9.18;3.05;;;-0.90;99.90;;;;;;5058888;28;20490;-69
2021/03/18 07:14:49;;;;;;;8.48;2.92;;;-0.80;99.90;;;;;;5066051;28;20031;-69
2021/03/18 07:17:36;;;;;;;6.95;2.63;;;-0.60;99.90;;;;;;5066097;28;20044;-69
2021/03/18 07:20:22;;;;;;;7.00;2.95;;;-0.40;99.90;;;;;;5081134;28;20055;-69
2021/03/18 07:23:16;;;;;;;6.90;2.40;;;-0.10;99.90;;;;;;5069260;28;20105;-69
2021/03/18 07:26:01;;;;;;;12.27;3.25;;;0.00;99.90;;;;;;5050530;28;20548;-69
2021/03/18 07:29:19;;;;;;;6.93;3.15;;;0.20;99.90;;;;;;5080330;28;20028;-69
2021/03/18 07:32:04;;;;;;;9.10;3.30;;;0.60;99.90;;;;;;5053910;28;20055;-69
2021/03/18 07:34:48;;;;;;;8.73;3.85;;;0.90;99.90;;;;;;5070020;28;20514;-69
2021/03/18 07:37:32;;;;;;;10.65;4.30;;;1.10;99.90;;;;;;5071400;28;20142;-69
2021/03/18 07:40:16;;;;;;;10.25;4.28;;;1.40;99.90;;;;;;5069584;28;20449;-68
2021/03/18 07:43:03;;;;;;;11.98;4.15;;;1.70;99.90;;;;;;5085492;28;20070;-69
2021/03/18 07:45:47;;;;;;;7.90;3.92;;;2.10;99.90;;;;;;5069922;28;20062;-69
2021/03/18 07:48:33;;;;;;;10.20;3.90;;;2.70;99.90;;;;;;5069984;28;20029;-68
2021/03/18 07:51:18;;;;;;;10.15;4.13;;;3.50;99.90;;;;;;5067309;28;20119;-68
2021/03/18 07:54:02;;;;;;;10.23;3.55;;;4.30;99.90;;;;;;5069454;28;20048;-68
2021/03/18 07:56:48;;;;;;;6.60;3.47;;;5.10;99.90;;;;;;5054737;28;20036;-68
2021/03/18 07:59:33;;;;;;;5.93;3.08;;;5.60;99.90;;;;;;5069030;28;20315;-68
2021/03/18 08:02:22;;;;;;;6.85;2.67;;;6.20;99.90;;;;;;5066438;28;20097;-68
2021/03/18 08:05:07;;;;;;;9.65;3.28;;;6.90;99.90;;;;;;5066161;28;20536;-69
2021/03/18 08:07:51;;;;;;;6.93;2.45;;;7.30;99.90;;;;;;5069808;28;20098;-69
2021/03/18 08:10:38;;;;;;;6.40;2.38;;;7.90;99.90;;;;;;5068989;28;20528;-68
2021/03/18 08:13:35;;;;;;;6.30;2.28;;;8.40;99.90;;;;;;5049362;28;20044;-69
2021/03/18 08:16:26;;;;;;;6.75;2.47;;;8.70;99.90;;;;;;5083621;28;20110;-69
2021/03/18 08:19:12;;;;;;;7.10;2.58;;;8.90;99.90;;;;;;5085123;28;20447;-69
2021/03/18 08:21:57;;;;;;;9.35;2.15;;;9.00;99.90;;;;;;5069277;28;20124;-69
2021/03/18 08:24:41;;;;;;;6.43;1.60;;;9.50;99.90;;;;;;5066779;28;20056;-69
2021/03/18 08:27:28;;;;;;;6.10;1.95;;;9.70;99.90;;;;;;5081545;28;20555;-69
2021/03/18 08:30:21;;;;;;;6.40;1.80;;;9.30;99.90;;;;;;5068454;28;20059;-69
2021/03/18 08:33:34;;;;;;;6.35;1.73;;;8.60;99.90;;;;;;5068272;28;20035;-69
2021/03/18 08:36:26;;;;;;;7.82;1.80;;;8.00;99.90;;;;;;5068072;28;20432;-69
2021/03/18 08:39:33;;;;;;;6.68;2.55;;;7.30;99.90;;;;;;5084652;28;20052;-69
2021/03/18 08:42:30;;;;;;;8.77;1.88;;;6.20;99.90;;;;;;5067232;28;20036;-69
2021/03/18 08:45:20;;;;;;;5.90;2.50;;;5.50;99.90;;;;;;5068805;28;20017;-69
2021/03/18 08:48:22;;;;;;;4.95;2.20;;;5.30;99.90;;;;;;5068806;28;20469;-69
2021/03/18 08:51:06;;;;;;;8.55;2.97;;;5.50;99.90;;;;;;5064618;28;20031;-69
2021/03/18 08:53:51;;;;;;;9.77;2.80;;;6.40;99.90;;;;;;5068711;28;20059;-69
2021/03/18 08:56:44;;;;;;;9.07;2.97;;;7.10;99.90;;;;;;5068166;28;20047;-69
2021/03/18 08:59:29;;;;;;;5.90;2.30;;;7.10;99.90;;;;;;5067801;28;20048;-69
2021/03/18 09:02:15;;;;;;;8.80;3.03;;;6.80;99.90;;;;;;5067930;28;20086;-69
2021/03/18 09:05:03;;;;;;;9.90;3.55;;;6.40;99.90;;;;;;5065382;28;20359;-69
2021/03/18 09:08:19;;;;;;;8.68;3.78;;;6.20;99.90;;;;;;5068471;28;20576;-69
2021/03/18 09:11:04;;;;;;;11.70;4.03;;;6.00;99.90;;;;;;5049674;28;20143;-69
2021/03/18 09:13:49;;;;;;;11.75;3.03;;;5.40;99.90;;;;;;5046176;28;20098;-69
2021/03/18 09:16:36;;;;;;;8.70;3.25;;;5.30;99.90;;;;;;5067526;28;20173;-69
2021/03/18 09:19:20;;;;;;;7.80;2.50;;;5.40;99.90;;;;;;5067180;28;20040;-69
2021/03/18 09:22:05;;;;;;;11.13;2.78;;;5.50;99.90;;;;;;5063785;28;20035;-69
2021/03/18 09:24:49;;;;;;;6.65;2.53;;;5.40;99.90;;;;;;5081001;28;20059;-69
2021/03/18 09:27:40;;;;;;;6.75;3.25;;;5.50;99.90;;;;;;5067346;28;20435;-69
2021/03/18 09:30:29;;;;;;;10.13;2.67;;;5.60;99.90;;;;;;5065496;28;20036;-69
2021/03/18 09:33:26;;;;;;;6.82;3.22;;;5.90;99.90;;;;;;5083736;28;20447;-69
2021/03/18 09:36:13;;;;;;;6.53;2.33;;;6.90;99.90;;;;;;5083910;28;20039;-69
2021/03/18 09:39:14;;;;;;;6.20;2.15;;;7.80;99.90;;;;;;5080807;28;20032;-69
2021/03/18 09:42:02;;;;;;;10.35;3.05;;;8.60;99.90;;;;;;5065637;28;20031;-69
2021/03/18 09:44:46;;;;;;;5.93;2.90;;;8.70;99.90;;;;;;5050418;28;20043;-70
2021/03/18 09:47:30;;;;;;;5.78;2.70;;;8.60;99.90;;;;;;5073994;28;20033;-69
2021/03/18 09:50:15;;;;;;;12.48;3.28;;;9.30;99.90;;;;;;5072673;28;20031;-69
2021/03/18 09:53:11;;;;;;;11.05;2.88;;;9.50;99.90;;;;;;5088082;28;20440;-69
2021/03/18 09:56:04;;;;;;;7.60;2.92;;;9.80;99.90;;;;;;5055181;28;20032;-69
2021/03/18 09:58:51;;;;;;;7.28;2.50;;;9.70;99.90;;;;;;5080301;28;20381;-69
2021/03/18 10:01:35;;;;;;;4.18;2.13;;;9.60;99.90;;;;;;5072273;28;20133;-69
2021/03/18 10:04:21;;;;;;;9.57;3.38;;;9.20;99.90;;;;;;5056746;28;20035;-69
2021/03/18 10:07:30;;;;;;;7.10;2.90;;;9.30;99.90;;;;;;5069977;28;20474;-69
2021/03/18 10:10:20;;;;;;;8.93;3.63;;;9.40;99.90;;;;;;5071399;28;20120;-70
2021/03/18 10:13:04;;;;;;;7.80;3.30;;;9.40;99.90;;;;;;5057849;28;20085;-70
2021/03/18 10:15:49;;;;;;;8.60;3.50;;;8.70;99.90;;;;;;5053090;28;20035;-69
2021/03/18 10:18:35;;;;;;;7.97;2.42;;;8.70;99.90;;;;;;5070633;28;20044;-70
2021/03/18 10:21:20;;;;;;;7.60;3.20;;;8.90;99.90;;;;;;5074438;28;20066;-69
2021/03/18 10:24:05;;;;;;;7.10;3.22;;;8.90;99.90;;;;;;5070589;28;20040;-69
2021/03/18 10:26:50;;;;;;;8.45;3.60;;;9.10;99.90;;;;;;5085977;28;20458;-69
2021/03/18 10:30:03;;;;;;;8.50;3.20;;;8.60;99.90;;;;;;5065691;28;20071;-68
2021/03/18 10:33:17;;;;;;;7.47;2.58;;;8.50;99.90;;;;;;5084887;28;20040;-69
2021/03/18 10:36:04;;;;;;;8.38;3.42;;;8.80;99.90;;;;;;5073411;28;20051;-70
2021/03/18 10:38:48;;;;;;;6.20;2.63;;;8.70;99.90;;;;;;5053309;28;20048;-69
2021/03/18 10:41:59;;;;;;;6.10;2.40;;;8.70;99.90;;;;;;5071231;28;20401;-70
2021/03/18 10:44:43;;;;;;;7.65;2.40;;;8.40;99.90;;;;;;5070442;28;20040;-70
2021/03/18 10:47:48;;;;;;;10.00;2.35;;;8.60;99.90;;;;;;5089030;28;20101;-69
2021/03/18 10:50:37;;;;;;;9.48;3.08;;;8.90;99.90;;;;;;5077361;28;20036;-69
2021/03/18 10:53:22;;;;;;;8.35;3.05;;;8.20;99.90;;;;;;5061789;28;20032;-70
2021/03/18 10:56:12;;;;;;;4.55;2.08;;;7.90;99.90;;;;;;5070776;28;20032;-69
2021/03/18 10:58:57;;;;;;;5.35;2.25;;;8.30;99.90;;;;;;5071635;28;20039;-69
2021/03/18 11:01:41;;;;;;;6.97;2.10;;;8.60;99.90;;;;;;5071088;28;20059;-68
2021/03/18 11:04:25;;;;;;;30.50;3.38;;;8.80;94.90;;;;;;5085446;28;20264;-69
2021/03/18 11:07:09;;;;;;;9.10;2.60;;;8.90;93.70;;;;;;5054086;28;20055;-69
2021/03/18 11:10:12;;;;;;;4.55;1.70;;;8.80;99.90;;;;;;5069909;28;20122;-67
2021/03/18 11:12:59;;;;;;;5.22;2.05;;;8.60;99.90;;;;;;5049250;28;20149;-68
2021/03/18 11:15:46;;;;;;;4.55;2.05;;;8.50;99.80;;;;;;5063034;28;20136;-68
2021/03/18 11:18:45;;;;;;;5.53;1.63;;;8.70;99.50;;;;;;5073285;28;20474;-68
2021/03/18 11:21:31;;;;;;;5.20;1.83;;;8.20;96.50;;;;;;5084263;28;20124;-68
2021/03/18 11:24:20;;;;;;;5.00;1.67;;;8.50;98.40;;;;;;5070346;28;20032;-69
2021/03/18 11:27:05;;;;;;;4.82;1.40;;;8.50;94.70;;;;;;5059098;28;20029;-68
2021/03/18 11:29:50;;;;;;;3.28;1.50;;;8.60;96.80;;;;;;5072262;28;20033;-68
2021/03/18 11:32:34;;;;;;;4.32;1.88;;;8.60;96.90;;;;;;5057846;28;20366;-68
2021/03/18 11:35:32;;;;;;;5.22;2.20;;;8.50;96.80;;;;;;5061003;28;20059;-68
2021/03/18 11:38:17;;;;;;;4.90;1.80;;;8.40;96.10;;;;;;5039149;28;20127;-68
2021/03/18 11:41:21;;;;;;;5.82;1.77;;;8.50;99.50;;;;;;5069170;28;20040;-68
2021/03/18 11:44:08;;;;;;;2.78;1.35;;;9.10;97.90;;;;;;5070457;28;20115;-69
2021/03/18 11:46:58;;;;;;;6.03;1.48;;;8.70;67.10;;;;;;5049452;28;20045;-68
2021/03/18 11:49:49;;;;;;;4.93;1.42;;;8.40;84.10;;;;;;5062606;28;20105;-69
2021/03/18 11:52:33;;;;;;;4.05;1.50;;;8.90;83.40;;;;;;5053388;28;20036;-68
2021/03/18 11:55:18;;;;;;;4.53;1.70;;;9.10;90.00;;;;;;5058691;28;20040;-68
2021/03/18 11:58:04;;;;;;;4.15;1.75;;;8.80;72.00;;;;;;5057272;28;20142;-68
2021/03/18 12:00:48;;;;;;;2.10;1.10;;;8.30;80.70;;;;;;5035984;28;20037;-68
2021/03/18 12:03:32;;;;;;;2.67;1.42;;;8.30;92.00;;;;;;5040408;28;20551;-69
2021/03/18 12:06:16;;;;;;;5.18;1.70;;;8.30;82.30;;;;;;5048073;28;20332;-69
2021/03/18 12:09:01;;;;;;;4.85;1.90;;;8.10;88.40;;;;;;5048674;28;20532;-69
2021/03/18 12:11:46;;;;;;;5.35;1.90;;;7.70;92.60;;;;;;5064136;28;20043;-69
2021/03/18 12:14:31;;;;;;;4.78;1.60;;;7.60;90.20;;;;;;5055335;28;20089;-69
2021/03/18 12:17:15;;;;;;;4.55;1.60;;;7.30;96.90;;;;;;5068762;28;20030;-69
2021/03/18 12:20:01;;;;;;;3.67;1.60;;;7.30;98.60;;;;;;5044389;28;20035;-68
2021/03/18 12:22:45;;;;;;;4.70;1.50;;;7.30;99.70;;;;;;5035512;28;20036;-69
2021/03/18 12:25:30;;;;;;;5.68;1.75;;;7.10;98.10;;;;;;5023040;28;20051;-69
2021/03/18 12:28:14;;;;;;;2.60;1.23;;;7.20;99.90;;;;;;5032886;28;20428;-69
2021/03/18 12:30:59;;;;;;;5.32;1.70;;;7.40;99.90;;;;;;5028147;28;20398;-69
2021/03/18 12:33:43;;;;;;;6.15;1.88;;;7.60;99.90;;;;;;5038541;28;20102;-69
2021/03/18 12:36:28;;;;;;;3.47;1.50;;;7.60;99.90;;;;;;5015093;28;20049;-69
2021/03/18 12:39:13;;;;;;;3.33;1.60;;;7.50;99.90;;;;;;5063714;28;20067;-69
2021/03/18 12:41:58;;;;;;;4.63;1.65;;;7.90;99.90;;;;;;5049696;28;20482;-69
2021/03/18 12:44:42;;;;;;;3.70;1.30;;;8.30;99.90;;;;;;5058393;28;20043;-69
2021/03/18 12:47:27;;;;;;;8.82;1.77;;;8.30;98.20;;;;;;5057126;28;20036;-69
2021/03/18 12:50:14;;;;;;;4.50;1.70;;;8.40;95.80;;;;;;5054452;28;20520;-68
2021/03/18 12:52:59;;;;;;;3.95;1.83;;;8.90;97.80;;;;;;5057509;28;20152;-69
2021/03/18 12:55:58;;;;;;;5.13;2.20;;;9.30;85.20;;;;;;5049719;28;20063;-69
2021/03/18 12:58:43;;;;;;;6.15;1.83;;;9.30;79.30;;;;;;5067888;28;20032;-70
2021/03/18 13:01:27;;;;;;;3.42;1.50;;;8.90;95.70;;;;;;5068153;28;20039;-69
2021/03/18 13:04:21;;;;;;;3.72;1.60;;;9.10;97.10;;;;;;5068356;28;20395;-69
2021/03/18 13:07:05;;;;;;;4.93;1.73;;;8.60;97.20;;;;;;5073691;28;20536;-69
2021/03/18 13:09:49;;;;;;;3.55;1.50;;;8.20;95.50;;;;;;5066019;28;20039;-69
2021/03/18 13:12:34;;;;;;;3.85;1.63;;;8.00;99.50;;;;;;5069647;28;20051;-69
2021/03/18 13:15:18;;;;;;;5.72;1.80;;;8.20;97.40;;;;;;5054732;28;20515;-69
2021/03/18 13:18:02;;;;;;;5.13;1.63;;;8.40;99.60;;;;;;5075027;28;20170;-69
2021/03/18 13:20:47;;;;;;;3.83;1.20;;;8.10;99.40;;;;;;5053494;28;20400;-70
2021/03/18 13:23:33;;;;;;;5.70;1.58;;;8.10;99.70;;;;;;5077872;28;20437;-69
2021/03/18 13:26:17;;;;;;;3.65;1.73;;;8.10;96.50;;;;;;5076941;28;20374;-69
2021/03/18 13:29:02;;;;;;;5.07;1.55;;;8.10;99.90;;;;;;5080918;28;20115;-69
2021/03/18 13:31:47;;;;;;;4.25;1.67;;;8.20;99.90;;;;;;5093938;28;20043;-69
2021/03/18 13:34:31;;;;;;;3.17;1.60;;;8.60;91.80;;;;;;5054281;28;20032;-69
2021/03/18 13:37:15;;;;;;;5.63;1.98;;;8.80;85.20;;;;;;5069132;28;20646;-69
2021/03/18 13:40:15;;;;;;;5.07;1.52;;;8.90;79.60;;;;;;5048851;28;20132;-69
2021/03/18 13:43:04;;;;;;;6.40;1.60;;;9.20;97.10;;;;;;5054276;28;20090;-69
2021/03/18 13:45:50;;;;;;;4.78;1.58;;;9.30;84.70;;;;;;5067709;28;20028;-69
2021/03/18 13:48:34;;;;;;;10.30;3.45;;;9.70;84.00;;;;;;5067682;28;20032;-69
2021/03/18 13:51:25;;;;;;;5.60;2.75;;;10.20;72.40;;;;;;5068577;28;20047;-69
2021/03/18 13:54:10;;;;;;;4.57;1.95;;;10.20;68.60;;;;;;5068039;28;20036;-69
2021/03/18 13:56:55;;;;;;;4.93;1.70;;;10.50;86.20;;;;;;5050730;28;20132;-69
2021/03/18 13:59:39;;;;;;;5.97;1.70;;;10.20;79.10;;;;;;5065298;28;20104;-69
2021/03/18 14:02:23;;;;;;;5.97;2.05;;;10.20;82.20;;;;;;5073385;28;20138;-69
2021/03/18 14:05:08;;;;;;;6.95;1.70;;;10.80;81.70;;;;;;5078995;28;20031;-69
2021/03/18 14:07:54;;;;;;;5.97;1.75;;;11.40;64.20;;;;;;5060896;28;20439;-68
2021/03/18 14:10:41;;;;;;;3.55;1.70;;;12.50;59.70;;;;;;5073997;28;20087;-69
2021/03/18 14:13:25;;;;;;;4.63;2.08;;;12.70;54.40;;;;;;5070543;28;20105;-70
2021/03/18 14:16:09;;;;;;;5.63;2.22;;;13.20;52.90;;;;;;5059980;28;20040;-69
2021/03/18 14:18:54;;;;;;;5.13;1.98;;;12.90;51.10;;;;;;5053231;28;20099;-69
2021/03/18 14:21:38;;;;;;;5.53;1.75;;;13.00;51.00;;;;;;5067871;28;20532;-69
2021/03/18 14:24:23;;;;;;;3.38;1.42;;;12.00;52.80;;;;;;5065774;28;20039;-69
2021/03/18 14:27:07;;;;;;;3.83;1.73;;;11.80;57.20;;;;;;5069132;28;20101;-69
2021/03/18 14:29:51;;;;;;;5.15;1.55;;;11.80;56.70;;;;;;5069064;28;20044;-68
2021/03/18 14:32:35;;;;;;;3.63;1.70;;;11.90;56.20;;;;;;5078297;28;20456;-69
2021/03/18 14:35:25;;;;;;;6.63;1.95;;;12.20;48.20;;;;;;5091853;28;20039;-69
2021/03/18 14:38:10;;;;;;;2.70;1.63;;;13.40;47.40;;;;;;5074794;28;20097;-69